sensor_id;sensor_type;location;lat;lon;timestamp;temperature;humidity
35325;DHT22;35135;47.510;19.036;2024-01-27T00:00:07;20.00;41.90
35325;DHT22;35135;47.510;19.036;2024-01-27T00:02:33;20.00;41.90
35325;DHT22;35135;47.510;19.036;2024-01-27T00:04:59;19.90;41.90
35325;DHT22;35135;47.510;19.036;2024-01-27T00:07:25;20.00;41.90
35325;DHT22;35135;47.510;19.036;2024-01-27T00:09:52;20.00;41.90
35325;DHT22;35135;47.510;19.036;2024-01-27T00:12:18;20.00;41.90
35325;DHT22;35135;47.510;19.036;2024-01-27T00:14:43;20.00;41.90
35325;DHT22;35135;47.510;19.036;2024-01-27T00:17:09;20.00;41.90
35325;DHT22;35135;47.510;19.036;2024-01-27T00:19:35;20.00;41.90
35325;DHT22;35135;47.510;19.036;2024-01-27T00:22:01;20.00;41.90
35325;DHT22;35135;47.510;19.036;2024-01-27T00:24:27;20.00;41.90
35325;DHT22;35135;47.510;19.036;2024-01-27T00:26:53;20.00;41.90
35325;DHT22;35135;47.510;19.036;2024-01-27T00:29:19;20.00;42.50
35325;DHT22;35135;47.510;19.036;2024-01-27T00:31:45;20.00;41.90
35325;DHT22;35135;47.510;19.036;2024-01-27T00:34:11;20.00;41.90
35325;DHT22;35135;47.510;19.036;2024-01-27T00:36:36;20.00;41.90
35325;DHT22;35135;47.510;19.036;2024-01-27T00:39:03;20.00;41.80
35325;DHT22;35135;47.510;19.036;2024-01-27T00:41:29;20.00;41.90
35325;DHT22;35135;47.510;19.036;2024-01-27T00:43:54;20.00;41.80
35325;DHT22;35135;47.510;19.036;2024-01-27T00:46:20;20.00;41.80
35325;DHT22;35135;47.510;19.036;2024-01-27T00:48:46;20.00;41.80
35325;DHT22;35135;47.510;19.036;2024-01-27T00:51:12;20.00;41.80
35325;DHT22;35135;47.510;19.036;2024-01-27T00:53:38;20.00;41.90
35325;DHT22;35135;47.510;19.036;2024-01-27T00:56:04;20.00;41.80
35325;DHT22;35135;47.510;19.036;2024-01-27T00:58:30;20.00;41.80
35325;DHT22;35135;47.510;19.036;2024-01-27T01:00:57;19.90;41.80
35325;DHT22;35135;47.510;19.036;2024-01-27T01:03:24;20.00;41.90
35325;DHT22;35135;47.510;19.036;2024-01-27T01:05:50;20.00;41.80
35325;DHT22;35135;47.510;19.036;2024-01-27T01:08:15;20.00;41.90
35325;DHT22;35135;47.510;19.036;2024-01-27T01:10:41;20.00;41.80
35325;DHT22;35135;47.510;19.036;2024-01-27T01:13:07;20.00;41.80
35325;DHT22;35135;47.510;19.036;2024-01-27T01:15:32;19.90;41.70
35325;DHT22;35135;47.510;19.036;2024-01-27T01:17:58;20.00;41.80
35325;DHT22;35135;47.510;19.036;2024-01-27T01:20:24;20.00;41.80
35325;DHT22;35135;47.510;19.036;2024-01-27T01:22:51;20.00;41.80
35325;DHT22;35135;47.510;19.036;2024-01-27T01:25:17;20.00;41.80
35325;DHT22;35135;47.510;19.036;2024-01-27T01:27:43;20.00;41.80
35325;DHT22;35135;47.510;19.036;2024-01-27T01:30:09;20.00;41.80
35325;DHT22;35135;47.510;19.036;2024-01-27T01:32:36;20.00;41.80
35325;DHT22;35135;47.510;19.036;2024-01-27T01:35:01;20.00;41.70
35325;DHT22;35135;47.510;19.036;2024-01-27T01:37:27;20.00;41.70
35325;DHT22;35135;47.510;19.036;2024-01-27T01:39:53;20.00;41.70
35325;DHT22;35135;47.510;19.036;2024-01-27T01:42:18;20.00;41.80
35325;DHT22;35135;47.510;19.036;2024-01-27T01:44:48;19.90;41.70
35325;DHT22;35135;47.510;19.036;2024-01-27T01:47:14;19.90;41.70
35325;DHT22;35135;47.510;19.036;2024-01-27T01:49:40;20.00;41.80
35325;DHT22;35135;47.510;19.036;2024-01-27T01:52:06;20.00;41.80
35325;DHT22;35135;47.510;19.036;2024-01-27T01:54:32;20.00;41.70
35325;DHT22;35135;47.510;19.036;2024-01-27T01:56:58;20.00;41.70
35325;DHT22;35135;47.510;19.036;2024-01-27T01:59:24;19.90;41.60
35325;DHT22;35135;47.510;19.036;2024-01-27T02:01:50;19.90;41.60
35325;DHT22;35135;47.510;19.036;2024-01-27T02:04:16;19.90;41.60
35325;DHT22;35135;47.510;19.036;2024-01-27T02:06:41;19.90;41.60
35325;DHT22;35135;47.510;19.036;2024-01-27T02:09:07;19.90;41.60
35325;DHT22;35135;47.510;19.036;2024-01-27T02:11:33;19.90;41.60
35325;DHT22;35135;47.510;19.036;2024-01-27T02:13:58;19.90;41.60
35325;DHT22;35135;47.510;19.036;2024-01-27T02:16:24;19.90;41.50
35325;DHT22;35135;47.510;19.036;2024-01-27T02:18:50;19.90;41.60
35325;DHT22;35135;47.510;19.036;2024-01-27T02:21:15;19.90;41.60
35325;DHT22;35135;47.510;19.036;2024-01-27T02:23:41;19.90;41.40
35325;DHT22;35135;47.510;19.036;2024-01-27T02:26:07;19.90;41.50
35325;DHT22;35135;47.510;19.036;2024-01-27T02:28:32;19.90;41.50
35325;DHT22;35135;47.510;19.036;2024-01-27T02:30:59;19.90;41.50
35325;DHT22;35135;47.510;19.036;2024-01-27T02:33:28;19.90;41.50
35325;DHT22;35135;47.510;19.036;2024-01-27T02:35:54;19.90;41.50
35325;DHT22;35135;47.510;19.036;2024-01-27T02:38:20;19.90;41.50
35325;DHT22;35135;47.510;19.036;2024-01-27T02:40:46;19.90;41.40
35325;DHT22;35135;47.510;19.036;2024-01-27T02:43:11;19.90;41.60
35325;DHT22;35135;47.510;19.036;2024-01-27T02:45:37;19.90;41.40
35325;DHT22;35135;47.510;19.036;2024-01-27T02:48:03;19.90;41.40
35325;DHT22;35135;47.510;19.036;2024-01-27T02:50:29;19.90;41.40
35325;DHT22;35135;47.510;19.036;2024-01-27T02:52:54;19.90;41.40
35325;DHT22;35135;47.510;19.036;2024-01-27T02:55:20;19.90;41.40
35325;DHT22;35135;47.510;19.036;2024-01-27T02:57:46;19.90;41.40
35325;DHT22;35135;47.510;19.036;2024-01-27T03:00:12;19.90;41.50
35325;DHT22;35135;47.510;19.036;2024-01-27T03:02:38;19.90;41.50
35325;DHT22;35135;47.510;19.036;2024-01-27T03:05:03;19.90;41.50
35325;DHT22;35135;47.510;19.036;2024-01-27T03:07:29;19.90;41.50
35325;DHT22;35135;47.510;19.036;2024-01-27T03:09:55;19.90;41.50
35325;DHT22;35135;47.510;19.036;2024-01-27T03:12:20;19.90;41.50
35325;DHT22;35135;47.510;19.036;2024-01-27T03:14:48;19.90;41.40
35325;DHT22;35135;47.510;19.036;2024-01-27T03:17:15;19.90;41.50
35325;DHT22;35135;47.510;19.036;2024-01-27T03:19:40;19.90;41.40
35325;DHT22;35135;47.510;19.036;2024-01-27T03:22:06;19.80;41.40
35325;DHT22;35135;47.510;19.036;2024-01-27T03:24:32;19.90;41.50
35325;DHT22;35135;47.510;19.036;2024-01-27T03:26:57;19.90;41.50
35325;DHT22;35135;47.510;19.036;2024-01-27T03:29:23;19.90;41.50
35325;DHT22;35135;47.510;19.036;2024-01-27T03:31:49;19.90;41.50
35325;DHT22;35135;47.510;19.036;2024-01-27T03:34:15;19.90;41.40
35325;DHT22;35135;47.510;19.036;2024-01-27T03:36:40;19.90;41.50
35325;DHT22;35135;47.510;19.036;2024-01-27T03:39:06;19.90;41.50
35325;DHT22;35135;47.510;19.036;2024-01-27T03:41:33;19.90;41.50
35325;DHT22;35135;47.510;19.036;2024-01-27T03:43:59;19.90;41.40
35325;DHT22;35135;47.510;19.036;2024-01-27T03:46:24;19.90;41.50
35325;DHT22;35135;47.510;19.036;2024-01-27T03:48:50;19.90;41.50
35325;DHT22;35135;47.510;19.036;2024-01-27T03:51:16;19.90;41.50
35325;DHT22;35135;47.510;19.036;2024-01-27T03:53:41;19.90;41.50
35325;DHT22;35135;47.510;19.036;2024-01-27T03:56:10;19.90;41.50
35325;DHT22;35135;47.510;19.036;2024-01-27T03:58:36;19.90;41.60
35325;DHT22;35135;47.510;19.036;2024-01-27T04:01:04;19.90;41.50
35325;DHT22;35135;47.510;19.036;2024-01-27T04:03:29;19.80;41.50
35325;DHT22;35135;47.510;19.036;2024-01-27T04:05:55;19.90;41.60
35325;DHT22;35135;47.510;19.036;2024-01-27T04:08:21;19.90;41.60
35325;DHT22;35135;47.510;19.036;2024-01-27T04:10:46;19.80;41.50
35325;DHT22;35135;47.510;19.036;2024-01-27T04:13:12;19.80;41.60
35325;DHT22;35135;47.510;19.036;2024-01-27T04:15:38;19.80;41.50
35325;DHT22;35135;47.510;19.036;2024-01-27T04:18:05;19.90;41.60
35325;DHT22;35135;47.510;19.036;2024-01-27T04:20:33;19.90;41.50
35325;DHT22;35135;47.510;19.036;2024-01-27T04:22:59;19.80;41.50
35325;DHT22;35135;47.510;19.036;2024-01-27T04:25:24;19.80;41.60
35325;DHT22;35135;47.510;19.036;2024-01-27T04:27:50;19.90;41.60
35325;DHT22;35135;47.510;19.036;2024-01-27T04:30:16;19.80;41.50
35325;DHT22;35135;47.510;19.036;2024-01-27T04:32:41;19.80;41.50
35325;DHT22;35135;47.510;19.036;2024-01-27T04:35:10;19.80;41.50
35325;DHT22;35135;47.510;19.036;2024-01-27T04:37:36;19.80;41.40
35325;DHT22;35135;47.510;19.036;2024-01-27T04:40:06;19.80;41.50
35325;DHT22;35135;47.510;19.036;2024-01-27T04:42:38;19.80;41.50
35325;DHT22;35135;47.510;19.036;2024-01-27T04:45:04;19.80;41.50
35325;DHT22;35135;47.510;19.036;2024-01-27T04:47:31;19.80;41.50
35325;DHT22;35135;47.510;19.036;2024-01-27T04:49:57;19.80;41.50
35325;DHT22;35135;47.510;19.036;2024-01-27T04:52:23;19.80;41.50
35325;DHT22;35135;47.510;19.036;2024-01-27T04:54:48;19.80;41.50
35325;DHT22;35135;47.510;19.036;2024-01-27T04:57:14;19.80;41.50
35325;DHT22;35135;47.510;19.036;2024-01-27T04:59:40;19.80;41.50
35325;DHT22;35135;47.510;19.036;2024-01-27T05:02:06;19.80;41.50
35325;DHT22;35135;47.510;19.036;2024-01-27T05:04:32;19.80;41.50
35325;DHT22;35135;47.510;19.036;2024-01-27T05:06:58;19.80;41.50
35325;DHT22;35135;47.510;19.036;2024-01-27T05:09:23;19.80;41.50
35325;DHT22;35135;47.510;19.036;2024-01-27T05:11:50;19.80;41.50
35325;DHT22;35135;47.510;19.036;2024-01-27T05:14:18;19.80;41.50
35325;DHT22;35135;47.510;19.036;2024-01-27T05:16:44;19.80;41.50
35325;DHT22;35135;47.510;19.036;2024-01-27T05:19:10;19.80;41.40
35325;DHT22;35135;47.510;19.036;2024-01-27T05:21:36;19.80;41.50
35325;DHT22;35135;47.510;19.036;2024-01-27T05:24:02;19.80;41.50
35325;DHT22;35135;47.510;19.036;2024-01-27T05:26:27;19.80;41.50
35325;DHT22;35135;47.510;19.036;2024-01-27T05:28:53;19.80;41.60
35325;DHT22;35135;47.510;19.036;2024-01-27T05:31:18;19.80;42.10
35325;DHT22;35135;47.510;19.036;2024-01-27T05:33:44;19.80;41.50
35325;DHT22;35135;47.510;19.036;2024-01-27T05:36:10;19.80;41.50
35325;DHT22;35135;47.510;19.036;2024-01-27T05:38:35;19.80;41.50
35325;DHT22;35135;47.510;19.036;2024-01-27T05:41:02;19.80;41.50
35325;DHT22;35135;47.510;19.036;2024-01-27T05:43:28;19.80;41.40
35325;DHT22;35135;47.510;19.036;2024-01-27T05:45:53;19.80;41.50
35325;DHT22;35135;47.510;19.036;2024-01-27T05:48:19;19.80;41.50
35325;DHT22;35135;47.510;19.036;2024-01-27T05:50:55;19.80;41.50
35325;DHT22;35135;47.510;19.036;2024-01-27T05:53:22;19.80;41.50
35325;DHT22;35135;47.510;19.036;2024-01-27T05:55:47;19.80;41.40
35325;DHT22;35135;47.510;19.036;2024-01-27T05:58:13;19.80;41.50
35325;DHT22;35135;47.510;19.036;2024-01-27T06:00:39;19.80;41.30
35325;DHT22;35135;47.510;19.036;2024-01-27T06:03:05;19.80;41.20
35325;DHT22;35135;47.510;19.036;2024-01-27T06:05:30;19.90;41.30
35325;DHT22;35135;47.510;19.036;2024-01-27T06:07:56;20.00;41.30
35325;DHT22;35135;47.510;19.036;2024-01-27T06:10:22;20.20;41.20
35325;DHT22;35135;47.510;19.036;2024-01-27T06:12:49;20.40;41.10
35325;DHT22;35135;47.510;19.036;2024-01-27T06:15:15;20.50;40.70
35325;DHT22;35135;47.510;19.036;2024-01-27T06:17:41;20.70;40.40
35325;DHT22;35135;47.510;19.036;2024-01-27T06:20:07;20.80;40.40
35325;DHT22;35135;47.510;19.036;2024-01-27T06:22:33;20.90;40.30
35325;DHT22;35135;47.510;19.036;2024-01-27T06:24:58;21.00;40.20
35325;DHT22;35135;47.510;19.036;2024-01-27T06:27:24;21.00;40.20
35325;DHT22;35135;47.510;19.036;2024-01-27T06:29:50;21.10;39.90
35325;DHT22;35135;47.510;19.036;2024-01-27T06:32:15;21.10;39.90
35325;DHT22;35135;47.510;19.036;2024-01-27T06:34:41;21.10;39.70
35325;DHT22;35135;47.510;19.036;2024-01-27T06:37:07;21.10;39.60
35325;DHT22;35135;47.510;19.036;2024-01-27T06:39:33;21.10;39.40
35325;DHT22;35135;47.510;19.036;2024-01-27T06:41:58;21.20;39.40
35325;DHT22;35135;47.510;19.036;2024-01-27T06:44:24;21.10;39.30
35325;DHT22;35135;47.510;19.036;2024-01-27T06:46:50;21.10;39.20
35325;DHT22;35135;47.510;19.036;2024-01-27T06:49:16;21.10;39.20
35325;DHT22;35135;47.510;19.036;2024-01-27T06:51:43;21.10;39.30
35325;DHT22;35135;47.510;19.036;2024-01-27T06:54:09;21.00;39.30
35325;DHT22;35135;47.510;19.036;2024-01-27T06:56:35;21.10;39.20
35325;DHT22;35135;47.510;19.036;2024-01-27T06:59:00;21.00;39.10
35325;DHT22;35135;47.510;19.036;2024-01-27T07:01:26;21.00;39.20
35325;DHT22;35135;47.510;19.036;2024-01-27T07:03:52;21.00;39.30
35325;DHT22;35135;47.510;19.036;2024-01-27T07:06:17;21.00;39.40
35325;DHT22;35135;47.510;19.036;2024-01-27T07:08:43;21.00;39.40
35325;DHT22;35135;47.510;19.036;2024-01-27T07:11:09;20.90;39.40
35325;DHT22;35135;47.510;19.036;2024-01-27T07:13:35;20.90;39.30
35325;DHT22;35135;47.510;19.036;2024-01-27T07:16:01;20.90;39.90
35325;DHT22;35135;47.510;19.036;2024-01-27T07:18:26;20.90;39.30
35325;DHT22;35135;47.510;19.036;2024-01-27T07:20:52;20.80;39.20
35325;DHT22;35135;47.510;19.036;2024-01-27T07:23:20;20.80;39.50
35325;DHT22;35135;47.510;19.036;2024-01-27T07:25:46;20.80;39.50
35325;DHT22;35135;47.510;19.036;2024-01-27T07:28:12;20.80;39.40
35325;DHT22;35135;47.510;19.036;2024-01-27T07:30:38;20.70;39.40
35325;DHT22;35135;47.510;19.036;2024-01-27T07:33:04;20.70;39.60
35325;DHT22;35135;47.510;19.036;2024-01-27T07:35:30;20.70;39.50
35325;DHT22;35135;47.510;19.036;2024-01-27T07:37:57;20.70;39.60
35325;DHT22;35135;47.510;19.036;2024-01-27T07:40:23;20.70;39.60
35325;DHT22;35135;47.510;19.036;2024-01-27T07:42:48;20.80;40.10
35325;DHT22;35135;47.510;19.036;2024-01-27T07:45:14;20.90;39.20
35325;DHT22;35135;47.510;19.036;2024-01-27T07:47:41;20.90;39.20
35325;DHT22;35135;47.510;19.036;2024-01-27T07:50:07;20.90;39.30
35325;DHT22;35135;47.510;19.036;2024-01-27T07:52:32;20.90;39.20
35325;DHT22;35135;47.510;19.036;2024-01-27T07:54:58;20.80;39.30
35325;DHT22;35135;47.510;19.036;2024-01-27T07:57:24;20.80;39.50
35325;DHT22;35135;47.510;19.036;2024-01-27T07:59:49;20.80;39.50
35325;DHT22;35135;47.510;19.036;2024-01-27T08:02:15;20.70;39.60
35325;DHT22;35135;47.510;19.036;2024-01-27T08:04:40;20.70;39.60
35325;DHT22;35135;47.510;19.036;2024-01-27T08:07:06;20.70;39.70
35325;DHT22;35135;47.510;19.036;2024-01-27T08:09:35;20.80;39.60
35325;DHT22;35135;47.510;19.036;2024-01-27T08:12:01;20.70;39.50
35325;DHT22;35135;47.510;19.036;2024-01-27T08:14:28;20.70;39.50
35325;DHT22;35135;47.510;19.036;2024-01-27T08:16:56;20.70;39.50
35325;DHT22;35135;47.510;19.036;2024-01-27T08:19:23;20.70;39.50
35325;DHT22;35135;47.510;19.036;2024-01-27T08:21:49;20.70;39.50
35325;DHT22;35135;47.510;19.036;2024-01-27T08:24:14;20.70;39.60
35325;DHT22;35135;47.510;19.036;2024-01-27T08:26:40;20.70;39.40
35325;DHT22;35135;47.510;19.036;2024-01-27T08:29:08;20.70;39.50
35325;DHT22;35135;47.510;19.036;2024-01-27T08:31:34;20.70;39.60
35325;DHT22;35135;47.510;19.036;2024-01-27T08:33:59;20.70;39.40
35325;DHT22;35135;47.510;19.036;2024-01-27T08:36:25;20.70;39.50
35325;DHT22;35135;47.510;19.036;2024-01-27T08:38:51;20.70;39.50
35325;DHT22;35135;47.510;19.036;2024-01-27T08:41:16;20.70;39.50
35325;DHT22;35135;47.510;19.036;2024-01-27T08:43:42;20.60;39.50
35325;DHT22;35135;47.510;19.036;2024-01-27T08:46:08;20.60;39.50
35325;DHT22;35135;47.510;19.036;2024-01-27T08:48:36;20.60;39.40
35325;DHT22;35135;47.510;19.036;2024-01-27T08:51:02;20.60;39.30
35325;DHT22;35135;47.510;19.036;2024-01-27T08:53:28;20.60;39.60
35325;DHT22;35135;47.510;19.036;2024-01-27T08:55:54;20.60;39.60
35325;DHT22;35135;47.510;19.036;2024-01-27T08:58:19;20.60;39.40
35325;DHT22;35135;47.510;19.036;2024-01-27T09:00:45;20.60;39.60
35325;DHT22;35135;47.510;19.036;2024-01-27T09:03:11;20.60;39.60
35325;DHT22;35135;47.510;19.036;2024-01-27T09:05:38;20.60;39.40
35325;DHT22;35135;47.510;19.036;2024-01-27T09:08:04;20.60;39.30
35325;DHT22;35135;47.510;19.036;2024-01-27T09:10:31;20.60;39.40
35325;DHT22;35135;47.510;19.036;2024-01-27T09:12:57;20.60;39.30
35325;DHT22;35135;47.510;19.036;2024-01-27T09:15:22;20.50;39.40
35325;DHT22;35135;47.510;19.036;2024-01-27T09:17:48;20.50;39.40
35325;DHT22;35135;47.510;19.036;2024-01-27T09:20:14;20.50;39.40
35325;DHT22;35135;47.510;19.036;2024-01-27T09:22:40;20.50;39.50
35325;DHT22;35135;47.510;19.036;2024-01-27T09:25:07;20.50;39.50
35325;DHT22;35135;47.510;19.036;2024-01-27T09:27:34;20.50;39.40
35325;DHT22;35135;47.510;19.036;2024-01-27T09:29:59;20.50;39.40
35325;DHT22;35135;47.510;19.036;2024-01-27T09:32:25;20.50;39.50
35325;DHT22;35135;47.510;19.036;2024-01-27T09:34:51;20.50;39.40
35325;DHT22;35135;47.510;19.036;2024-01-27T09:37:19;20.50;39.50
35325;DHT22;35135;47.510;19.036;2024-01-27T09:39:44;20.50;39.40
35325;DHT22;35135;47.510;19.036;2024-01-27T09:42:13;20.50;39.40
35325;DHT22;35135;47.510;19.036;2024-01-27T09:44:43;20.40;39.40
35325;DHT22;35135;47.510;19.036;2024-01-27T09:47:11;20.50;39.50
35325;DHT22;35135;47.510;19.036;2024-01-27T09:49:39;20.40;39.40
35325;DHT22;35135;47.510;19.036;2024-01-27T09:52:05;20.40;39.50
35325;DHT22;35135;47.510;19.036;2024-01-27T09:54:31;20.40;39.50
35325;DHT22;35135;47.510;19.036;2024-01-27T09:56:57;20.40;39.50
35325;DHT22;35135;47.510;19.036;2024-01-27T09:59:23;20.40;39.50
35325;DHT22;35135;47.510;19.036;2024-01-27T10:01:52;20.40;39.70
35325;DHT22;35135;47.510;19.036;2024-01-27T10:04:19;20.40;39.70
35325;DHT22;35135;47.510;19.036;2024-01-27T10:06:47;20.40;39.60
35325;DHT22;35135;47.510;19.036;2024-01-27T10:09:14;20.40;39.60
35325;DHT22;35135;47.510;19.036;2024-01-27T10:11:43;20.40;39.50
35325;DHT22;35135;47.510;19.036;2024-01-27T10:14:10;20.40;39.70
35325;DHT22;35135;47.510;19.036;2024-01-27T10:16:43;20.40;39.60
35325;DHT22;35135;47.510;19.036;2024-01-27T10:19:17;20.40;39.60
35325;DHT22;35135;47.510;19.036;2024-01-27T10:21:47;20.40;39.60
35325;DHT22;35135;47.510;19.036;2024-01-27T10:24:16;20.40;39.60
35325;DHT22;35135;47.510;19.036;2024-01-27T10:26:42;20.40;39.60
35325;DHT22;35135;47.510;19.036;2024-01-27T10:29:08;20.40;40.20
35325;DHT22;35135;47.510;19.036;2024-01-27T10:31:34;20.40;39.70
35325;DHT22;35135;47.510;19.036;2024-01-27T10:34:02;20.40;39.60
35325;DHT22;35135;47.510;19.036;2024-01-27T10:36:42;20.40;39.60
35325;DHT22;35135;47.510;19.036;2024-01-27T10:39:20;20.40;39.60
35325;DHT22;35135;47.510;19.036;2024-01-27T10:41:46;20.40;39.60
35325;DHT22;35135;47.510;19.036;2024-01-27T10:44:14;20.40;39.60
35325;DHT22;35135;47.510;19.036;2024-01-27T10:46:43;20.40;39.50
35325;DHT22;35135;47.510;19.036;2024-01-27T10:49:13;20.40;39.50
35325;DHT22;35135;47.510;19.036;2024-01-27T10:51:46;20.40;39.60
35325;DHT22;35135;47.510;19.036;2024-01-27T10:54:26;20.40;39.60
35325;DHT22;35135;47.510;19.036;2024-01-27T10:56:57;20.40;39.50
35325;DHT22;35135;47.510;19.036;2024-01-27T10:59:26;20.30;39.40
35325;DHT22;35135;47.510;19.036;2024-01-27T11:01:53;20.40;39.60
35325;DHT22;35135;47.510;19.036;2024-01-27T11:04:20;20.40;39.60
35325;DHT22;35135;47.510;19.036;2024-01-27T11:06:48;20.30;39.50
35325;DHT22;35135;47.510;19.036;2024-01-27T11:09:14;20.40;39.50
35325;DHT22;35135;47.510;19.036;2024-01-27T11:11:42;20.30;39.50
35325;DHT22;35135;47.510;19.036;2024-01-27T11:14:09;20.40;39.50
35325;DHT22;35135;47.510;19.036;2024-01-27T11:16:35;20.40;39.50
35325;DHT22;35135;47.510;19.036;2024-01-27T11:19:01;20.40;39.50
35325;DHT22;35135;47.510;19.036;2024-01-27T11:21:28;20.40;39.40
35325;DHT22;35135;47.510;19.036;2024-01-27T11:23:53;20.40;39.50
35325;DHT22;35135;47.510;19.036;2024-01-27T11:26:20;20.40;39.40
35325;DHT22;35135;47.510;19.036;2024-01-27T11:28:47;20.40;39.50
35325;DHT22;35135;47.510;19.036;2024-01-27T11:31:20;20.40;39.40
35325;DHT22;35135;47.510;19.036;2024-01-27T11:33:47;20.40;39.30
35325;DHT22;35135;47.510;19.036;2024-01-27T11:36:21;20.40;39.50
35325;DHT22;35135;47.510;19.036;2024-01-27T11:38:47;20.40;39.20
35325;DHT22;35135;47.510;19.036;2024-01-27T11:41:22;20.40;39.20
35325;DHT22;35135;47.510;19.036;2024-01-27T11:43:52;20.40;39.10
35325;DHT22;35135;47.510;19.036;2024-01-27T11:46:18;20.40;39.20
35325;DHT22;35135;47.510;19.036;2024-01-27T11:48:44;20.40;39.30
35325;DHT22;35135;47.510;19.036;2024-01-27T11:51:13;20.40;39.20
35325;DHT22;35135;47.510;19.036;2024-01-27T11:53:39;20.40;39.30
35325;DHT22;35135;47.510;19.036;2024-01-27T11:56:05;20.30;39.20
35325;DHT22;35135;47.510;19.036;2024-01-27T11:58:31;20.40;39.30
35325;DHT22;35135;47.510;19.036;2024-01-27T12:00:57;20.40;39.20
35325;DHT22;35135;47.510;19.036;2024-01-27T12:03:26;20.30;39.30
35325;DHT22;35135;47.510;19.036;2024-01-27T12:05:52;20.30;39.20
35325;DHT22;35135;47.510;19.036;2024-01-27T12:08:18;20.30;39.30
35325;DHT22;35135;47.510;19.036;2024-01-27T12:10:44;20.40;39.30
35325;DHT22;35135;47.510;19.036;2024-01-27T12:13:10;20.30;39.20
35325;DHT22;35135;47.510;19.036;2024-01-27T12:15:36;20.40;39.30
35325;DHT22;35135;47.510;19.036;2024-01-27T12:18:01;20.30;39.20
35325;DHT22;35135;47.510;19.036;2024-01-27T12:20:29;20.40;39.20
35325;DHT22;35135;47.510;19.036;2024-01-27T12:23:08;20.40;39.20
35325;DHT22;35135;47.510;19.036;2024-01-27T12:25:34;20.40;39.20
35325;DHT22;35135;47.510;19.036;2024-01-27T12:28:03;20.40;39.20
35325;DHT22;35135;47.510;19.036;2024-01-27T12:30:29;20.40;39.20
35325;DHT22;35135;47.510;19.036;2024-01-27T12:32:57;20.40;39.70
35325;DHT22;35135;47.510;19.036;2024-01-27T12:35:23;20.40;39.10
35325;DHT22;35135;47.510;19.036;2024-01-27T12:37:50;20.40;39.30
35325;DHT22;35135;47.510;19.036;2024-01-27T12:40:19;20.30;39.10
35325;DHT22;35135;47.510;19.036;2024-01-27T12:42:46;20.30;39.10
35325;DHT22;35135;47.510;19.036;2024-01-27T12:45:12;20.30;39.20
35325;DHT22;35135;47.510;19.036;2024-01-27T12:47:38;20.30;39.20
35325;DHT22;35135;47.510;19.036;2024-01-27T12:50:04;20.30;39.30
35325;DHT22;35135;47.510;19.036;2024-01-27T12:52:29;20.30;39.20
35325;DHT22;35135;47.510;19.036;2024-01-27T12:54:55;20.30;39.30
35325;DHT22;35135;47.510;19.036;2024-01-27T12:57:21;20.30;39.30
35325;DHT22;35135;47.510;19.036;2024-01-27T12:59:46;20.30;39.30
35325;DHT22;35135;47.510;19.036;2024-01-27T13:02:12;20.20;39.20
35325;DHT22;35135;47.510;19.036;2024-01-27T13:04:38;20.30;39.20
35325;DHT22;35135;47.510;19.036;2024-01-27T13:07:04;20.30;39.10
35325;DHT22;35135;47.510;19.036;2024-01-27T13:09:30;20.20;39.00
35325;DHT22;35135;47.510;19.036;2024-01-27T13:11:55;20.20;39.00
35325;DHT22;35135;47.510;19.036;2024-01-27T13:14:21;20.20;39.10
35325;DHT22;35135;47.510;19.036;2024-01-27T13:16:48;20.20;39.20
35325;DHT22;35135;47.510;19.036;2024-01-27T13:19:13;20.20;39.10
35325;DHT22;35135;47.510;19.036;2024-01-27T13:21:39;20.20;39.20
35325;DHT22;35135;47.510;19.036;2024-01-27T13:24:06;20.20;39.20
35325;DHT22;35135;47.510;19.036;2024-01-27T13:26:34;20.20;39.10
35325;DHT22;35135;47.510;19.036;2024-01-27T13:29:06;20.20;39.20
35325;DHT22;35135;47.510;19.036;2024-01-27T13:31:32;20.20;39.00
35325;DHT22;35135;47.510;19.036;2024-01-27T13:33:58;20.20;39.00
35325;DHT22;35135;47.510;19.036;2024-01-27T13:36:25;20.20;39.10
35325;DHT22;35135;47.510;19.036;2024-01-27T13:38:51;20.20;39.00
35325;DHT22;35135;47.510;19.036;2024-01-27T13:41:18;20.20;39.00
35325;DHT22;35135;47.510;19.036;2024-01-27T13:43:44;20.10;38.90
35325;DHT22;35135;47.510;19.036;2024-01-27T13:46:10;20.20;38.90
35325;DHT22;35135;47.510;19.036;2024-01-27T13:48:36;20.10;39.00
35325;DHT22;35135;47.510;19.036;2024-01-27T13:51:02;20.20;39.00
35325;DHT22;35135;47.510;19.036;2024-01-27T13:53:28;20.10;38.80
35325;DHT22;35135;47.510;19.036;2024-01-27T13:55:54;20.10;38.90
35325;DHT22;35135;47.510;19.036;2024-01-27T13:58:20;20.10;38.80
35325;DHT22;35135;47.510;19.036;2024-01-27T14:00:47;20.10;38.80
35325;DHT22;35135;47.510;19.036;2024-01-27T14:03:13;20.10;38.90
35325;DHT22;35135;47.510;19.036;2024-01-27T14:05:39;20.10;38.80
35325;DHT22;35135;47.510;19.036;2024-01-27T14:08:05;20.10;38.80
35325;DHT22;35135;47.510;19.036;2024-01-27T14:10:32;20.10;38.80
35325;DHT22;35135;47.510;19.036;2024-01-27T14:12:58;20.10;38.80
35325;DHT22;35135;47.510;19.036;2024-01-27T14:15:23;20.10;38.90
35325;DHT22;35135;47.510;19.036;2024-01-27T14:17:49;20.10;38.80
35325;DHT22;35135;47.510;19.036;2024-01-27T14:20:15;20.10;38.80
35325;DHT22;35135;47.510;19.036;2024-01-27T14:22:41;20.10;39.00
35325;DHT22;35135;47.510;19.036;2024-01-27T14:25:07;20.00;38.90
35325;DHT22;35135;47.510;19.036;2024-01-27T14:27:33;20.00;39.00
35325;DHT22;35135;47.510;19.036;2024-01-27T14:30:00;20.10;39.00
35325;DHT22;35135;47.510;19.036;2024-01-27T14:32:26;20.00;38.90
35325;DHT22;35135;47.510;19.036;2024-01-27T14:34:52;20.00;39.00
35325;DHT22;35135;47.510;19.036;2024-01-27T14:37:18;20.00;39.10
35325;DHT22;35135;47.510;19.036;2024-01-27T14:39:45;20.00;39.00
35325;DHT22;35135;47.510;19.036;2024-01-27T14:42:15;20.00;38.90
35325;DHT22;35135;47.510;19.036;2024-01-27T14:44:42;20.00;39.00
35325;DHT22;35135;47.510;19.036;2024-01-27T14:47:11;20.00;38.90
35325;DHT22;35135;47.510;19.036;2024-01-27T14:49:36;20.00;38.90
35325;DHT22;35135;47.510;19.036;2024-01-27T14:52:04;20.00;39.00
35325;DHT22;35135;47.510;19.036;2024-01-27T14:54:30;20.00;39.10
35325;DHT22;35135;47.510;19.036;2024-01-27T14:56:56;20.00;39.20
35325;DHT22;35135;47.510;19.036;2024-01-27T14:59:22;20.00;39.10
35325;DHT22;35135;47.510;19.036;2024-01-27T15:01:47;20.00;39.10
35325;DHT22;35135;47.510;19.036;2024-01-27T15:04:15;20.00;39.10
35325;DHT22;35135;47.510;19.036;2024-01-27T15:06:40;19.90;39.10
35325;DHT22;35135;47.510;19.036;2024-01-27T15:09:07;20.00;39.20